Overview Statistics Trail Chart Weather Telemetry Raw packets
 

This is the latest recevied weather packets stored in our database for station/object N3TJJ-2. If no packets are shown the sender has not sent any weather packets the latest 10 day(s).

<< 71 72 73 74 75 76 77 >>
Time Temp. Humidity Pressure Rain* Wind** Luminosity Snow
1787985764 17.22° C 77% 1022.3 hPa 0 mm - - -
1787985411 17.22° C 76% 1022.2 hPa 0 mm - - -
1787985046 17.22° C 75% 1022.2 hPa 0 mm - - -
1787984693 17.22° C 74% 1022.1 hPa 0 mm - - -
1787984332 17.22° C 74% 1022.2 hPa 0 mm - - -
1787983967 17.22° C 73% 1022.3 hPa 0 mm - - -
1787983609 17.22° C 73% 1022.2 hPa 0 mm - - -
1787983258 17.22° C 73% 1022.2 hPa 0 mm - - -
1787982887 17.78° C 73% 1022.2 hPa 0 mm - - -
1787982528 17.78° C 73% 1022.2 hPa 0 mm - - -
1787982163 17.78° C 73% 1022.1 hPa 0 mm - - -
1787981814 17.78° C 73% 1022.1 hPa 0 mm - - -
1787981544 27.22° C 67% 1018.1 hPa 0 mm - - -
1787981455 18.33° C 74% 1022.1 hPa 0 mm - - -
1787981083 18.33° C 76% 1022 hPa 0 mm - - -
1787980734 18.89° C 76% 1021.9 hPa 0 mm - - -
1787980408 19.44° C 77% 1021.9 hPa 0 mm - - -
1787980047 19.44° C 77% 1021.7 hPa 0 mm - - -
1787979646 20° C 77% 1021.7 hPa 0 mm - - -
1787979479 20° C 77% 1021.5 hPa 0 mm - - -
1787978931 20.56° C 77% 1021.6 hPa 0 mm - - -
1787978577 20.56° C 77% 1021.5 hPa 0 mm - - -
1787978214 20.56° C 77% 1021.4 hPa 0 mm - - -
1787977863 20.56° C 77% 1021.3 hPa 0 mm - - -
1787977490 20.56° C 76% 1021.2 hPa 0 mm - - -

* Rain latest hour (hover to see other rain measurements)
** Current wind speed in m/s (hover to see current wind gust speed)